sensor_id;sensor_type;location;lat;lon;timestamp;P1;durP1;ratioP1;P2;durP2;ratioP2
25279;SDS011;13225;47.804;12.116;2023-04-03T00:01:00;15.57;;;9.40;;
25279;SDS011;13225;47.804;12.116;2023-04-03T00:03:27;15.23;;;9.18;;
25279;SDS011;13225;47.804;12.116;2023-04-03T00:05:52;66.53;;;53.33;;
25279;SDS011;13225;47.804;12.116;2023-04-03T00:08:18;23.67;;;15.00;;
25279;SDS011;13225;47.804;12.116;2023-04-03T00:10:49;23.02;;;13.40;;
25279;SDS011;13225;47.804;12.116;2023-04-03T00:13:15;75.05;;;55.67;;
25279;SDS011;13225;47.804;12.116;2023-04-03T00:15:41;23.67;;;13.32;;
25279;SDS011;13225;47.804;12.116;2023-04-03T00:18:07;61.10;;;42.00;;
25279;SDS011;13225;47.804;12.116;2023-04-03T00:20:32;25.40;;;14.10;;
25279;SDS011;13225;47.804;12.116;2023-04-03T00:23:01;30.40;;;20.70;;
25279;SDS011;13225;47.804;12.116;2023-04-03T00:25:26;33.83;;;23.33;;
25279;SDS011;13225;47.804;12.116;2023-04-03T00:27:52;28.95;;;17.48;;
25279;SDS011;13225;47.804;12.116;2023-04-03T00:30:19;37.63;;;26.60;;
25279;SDS011;13225;47.804;12.116;2023-04-03T00:32:47;37.03;;;24.33;;
25279;SDS011;13225;47.804;12.116;2023-04-03T00:35:13;24.52;;;12.70;;
25279;SDS011;13225;47.804;12.116;2023-04-03T00:37:41;27.13;;;15.63;;
25279;SDS011;13225;47.804;12.116;2023-04-03T00:40:07;29.50;;;17.50;;
25279;SDS011;13225;47.804;12.116;2023-04-03T00:42:35;32.08;;;20.27;;
25279;SDS011;13225;47.804;12.116;2023-04-03T00:47:27;29.48;;;15.68;;
25279;SDS011;13225;47.804;12.116;2023-04-03T00:49:55;22.08;;;12.63;;
25279;SDS011;13225;47.804;12.116;2023-04-03T00:52:23;24.20;;;13.43;;
25279;SDS011;13225;47.804;12.116;2023-04-03T00:54:53;25.17;;;12.80;;
25279;SDS011;13225;47.804;12.116;2023-04-03T00:57:22;24.90;;;13.90;;
25279;SDS011;13225;47.804;12.116;2023-04-03T00:59:49;25.55;;;13.50;;
25279;SDS011;13225;47.804;12.116;2023-04-03T01:02:20;25.00;;;12.95;;
25279;SDS011;13225;47.804;12.116;2023-04-03T01:04:46;27.55;;;14.35;;
25279;SDS011;13225;47.804;12.116;2023-04-03T01:07:14;25.67;;;12.85;;
25279;SDS011;13225;47.804;12.116;2023-04-03T01:09:43;23.42;;;13.00;;
25279;SDS011;13225;47.804;12.116;2023-04-03T01:14:45;19.67;;;8.52;;
25279;SDS011;13225;47.804;12.116;2023-04-03T01:25:34;22.35;;;12.23;;
25279;SDS011;13225;47.804;12.116;2023-04-03T01:28:05;22.17;;;12.15;;
25279;SDS011;13225;47.804;12.116;2023-04-03T01:30:36;23.30;;;12.45;;
25279;SDS011;13225;47.804;12.116;2023-04-03T01:33:10;22.80;;;11.65;;
25279;SDS011;13225;47.804;12.116;2023-04-03T01:35:35;15.70;;;8.38;;
25279;SDS011;13225;47.804;12.116;2023-04-03T01:38:02;20.70;;;11.70;;
25279;SDS011;13225;47.804;12.116;2023-04-03T01:40:28;22.42;;;12.55;;
25279;SDS011;13225;47.804;12.116;2023-04-03T01:42:53;22.23;;;11.45;;
25279;SDS011;13225;47.804;12.116;2023-04-03T01:45:19;17.92;;;9.65;;
25279;SDS011;13225;47.804;12.116;2023-04-03T01:47:44;18.63;;;10.60;;
25279;SDS011;13225;47.804;12.116;2023-04-03T01:50:10;20.42;;;11.38;;
25279;SDS011;13225;47.804;12.116;2023-04-03T01:52:35;22.08;;;12.48;;
25279;SDS011;13225;47.804;12.116;2023-04-03T01:55:01;20.95;;;10.50;;
25279;SDS011;13225;47.804;12.116;2023-04-03T01:57:27;25.42;;;12.68;;
25279;SDS011;13225;47.804;12.116;2023-04-03T01:59:52;22.85;;;10.77;;
25279;SDS011;13225;47.804;12.116;2023-04-03T02:02:18;20.80;;;12.05;;
25279;SDS011;13225;47.804;12.116;2023-04-03T02:04:45;17.45;;;9.13;;
25279;SDS011;13225;47.804;12.116;2023-04-03T02:07:15;19.45;;;10.93;;
25279;SDS011;13225;47.804;12.116;2023-04-03T02:09:40;22.15;;;11.57;;
25279;SDS011;13225;47.804;12.116;2023-04-03T02:12:06;22.92;;;12.10;;
25279;SDS011;13225;47.804;12.116;2023-04-03T02:14:31;19.92;;;10.70;;
25279;SDS011;13225;47.804;12.116;2023-04-03T02:16:57;21.13;;;10.93;;
25279;SDS011;13225;47.804;12.116;2023-04-03T02:19:25;15.98;;;8.45;;
25279;SDS011;13225;47.804;12.116;2023-04-03T02:21:51;20.02;;;9.50;;
25279;SDS011;13225;47.804;12.116;2023-04-03T02:24:16;11.10;;;5.18;;
25279;SDS011;13225;47.804;12.116;2023-04-03T02:26:42;16.23;;;9.60;;
25279;SDS011;13225;47.804;12.116;2023-04-03T02:29:07;18.17;;;9.32;;
25279;SDS011;13225;47.804;12.116;2023-04-03T02:31:33;17.02;;;8.15;;
25279;SDS011;13225;47.804;12.116;2023-04-03T02:33:59;10.48;;;5.72;;
25279;SDS011;13225;47.804;12.116;2023-04-03T02:36:24;18.05;;;9.02;;
25279;SDS011;13225;47.804;12.116;2023-04-03T02:38:50;9.45;;;4.90;;
25279;SDS011;13225;47.804;12.116;2023-04-03T02:41:15;16.83;;;9.75;;
25279;SDS011;13225;47.804;12.116;2023-04-03T02:43:41;18.02;;;9.00;;
25279;SDS011;13225;47.804;12.116;2023-04-03T02:46:06;14.57;;;8.75;;
25279;SDS011;13225;47.804;12.116;2023-04-03T02:48:33;16.98;;;9.73;;
25279;SDS011;13225;47.804;12.116;2023-04-03T02:50:58;14.10;;;6.32;;
25279;SDS011;13225;47.804;12.116;2023-04-03T02:53:24;15.23;;;7.82;;
25279;SDS011;13225;47.804;12.116;2023-04-03T02:55:49;19.33;;;10.07;;
25279;SDS011;13225;47.804;12.116;2023-04-03T02:58:15;19.05;;;10.75;;
25279;SDS011;13225;47.804;12.116;2023-04-03T03:00:41;20.23;;;10.93;;
25279;SDS011;13225;47.804;12.116;2023-04-03T03:03:06;27.83;;;10.80;;
25279;SDS011;13225;47.804;12.116;2023-04-03T03:05:33;18.77;;;10.52;;
25279;SDS011;13225;47.804;12.116;2023-04-03T03:07:59;18.42;;;10.75;;
25279;SDS011;13225;47.804;12.116;2023-04-03T03:10:25;19.63;;;10.77;;
25279;SDS011;13225;47.804;12.116;2023-04-03T03:12:51;19.80;;;10.77;;
25279;SDS011;13225;47.804;12.116;2023-04-03T03:15:16;18.77;;;10.35;;
25279;SDS011;13225;47.804;12.116;2023-04-03T03:17:44;22.45;;;11.73;;
25279;SDS011;13225;47.804;12.116;2023-04-03T03:20:10;20.38;;;10.85;;
25279;SDS011;13225;47.804;12.116;2023-04-03T03:22:36;20.52;;;11.68;;
25279;SDS011;13225;47.804;12.116;2023-04-03T03:25:02;20.40;;;10.90;;
25279;SDS011;13225;47.804;12.116;2023-04-03T03:27:28;18.05;;;9.35;;
25279;SDS011;13225;47.804;12.116;2023-04-03T03:29:54;19.65;;;11.27;;
25279;SDS011;13225;47.804;12.116;2023-04-03T03:32:19;20.98;;;10.70;;
25279;SDS011;13225;47.804;12.116;2023-04-03T03:34:45;18.60;;;11.00;;
25279;SDS011;13225;47.804;12.116;2023-04-03T03:37:24;21.13;;;11.98;;
25279;SDS011;13225;47.804;12.116;2023-04-03T03:40:02;20.33;;;11.10;;
25279;SDS011;13225;47.804;12.116;2023-04-03T03:42:27;18.55;;;10.52;;
25279;SDS011;13225;47.804;12.116;2023-04-03T03:44:53;18.98;;;10.90;;
25279;SDS011;13225;47.804;12.116;2023-04-03T03:47:19;22.50;;;11.73;;
25279;SDS011;13225;47.804;12.116;2023-04-03T03:49:45;20.38;;;10.98;;
25279;SDS011;13225;47.804;12.116;2023-04-03T03:52:10;23.67;;;11.80;;
25279;SDS011;13225;47.804;12.116;2023-04-03T03:54:36;20.05;;;11.07;;
25279;SDS011;13225;47.804;12.116;2023-04-03T03:57:02;19.60;;;11.00;;
25279;SDS011;13225;47.804;12.116;2023-04-03T03:59:28;17.92;;;10.70;;
25279;SDS011;13225;47.804;12.116;2023-04-03T04:01:54;20.08;;;11.65;;
25279;SDS011;13225;47.804;12.116;2023-04-03T04:04:20;22.45;;;11.82;;
25279;SDS011;13225;47.804;12.116;2023-04-03T04:06:46;19.88;;;10.77;;
25279;SDS011;13225;47.804;12.116;2023-04-03T04:09:11;20.33;;;11.48;;
25279;SDS011;13225;47.804;12.116;2023-04-03T04:11:37;22.02;;;12.20;;
25279;SDS011;13225;47.804;12.116;2023-04-03T04:14:06;20.40;;;11.35;;
25279;SDS011;13225;47.804;12.116;2023-04-03T04:16:32;19.42;;;11.15;;
25279;SDS011;13225;47.804;12.116;2023-04-03T04:18:58;19.08;;;10.90;;
25279;SDS011;13225;47.804;12.116;2023-04-03T04:21:24;18.52;;;10.68;;
25279;SDS011;13225;47.804;12.116;2023-04-03T04:23:49;20.20;;;10.68;;
25279;SDS011;13225;47.804;12.116;2023-04-03T04:26:15;21.63;;;12.02;;
25279;SDS011;13225;47.804;12.116;2023-04-03T04:28:40;21.23;;;10.80;;
25279;SDS011;13225;47.804;12.116;2023-04-03T04:31:06;21.23;;;11.07;;
25279;SDS011;13225;47.804;12.116;2023-04-03T04:33:31;24.48;;;11.25;;
25279;SDS011;13225;47.804;12.116;2023-04-03T04:35:57;21.55;;;11.50;;
25279;SDS011;13225;47.804;12.116;2023-04-03T04:38:22;21.38;;;11.35;;
25279;SDS011;13225;47.804;12.116;2023-04-03T04:40:48;22.77;;;11.48;;
25279;SDS011;13225;47.804;12.116;2023-04-03T04:43:14;17.10;;;8.75;;
25279;SDS011;13225;47.804;12.116;2023-04-03T04:45:40;17.92;;;9.98;;
25279;SDS011;13225;47.804;12.116;2023-04-03T04:48:06;20.27;;;10.85;;
25279;SDS011;13225;47.804;12.116;2023-04-03T04:50:32;18.27;;;10.57;;
25279;SDS011;13225;47.804;12.116;2023-04-03T04:52:58;18.35;;;10.73;;
25279;SDS011;13225;47.804;12.116;2023-04-03T04:55:23;17.38;;;10.07;;
25279;SDS011;13225;47.804;12.116;2023-04-03T04:57:49;16.55;;;10.27;;
25279;SDS011;13225;47.804;12.116;2023-04-03T05:00:15;17.67;;;10.32;;
25279;SDS011;13225;47.804;12.116;2023-04-03T05:02:41;16.83;;;9.80;;
25279;SDS011;13225;47.804;12.116;2023-04-03T05:05:06;18.60;;;10.27;;
25279;SDS011;13225;47.804;12.116;2023-04-03T05:07:32;18.38;;;10.45;;
25279;SDS011;13225;47.804;12.116;2023-04-03T05:09:58;15.30;;;9.30;;
25279;SDS011;13225;47.804;12.116;2023-04-03T05:12:24;17.27;;;10.13;;
25279;SDS011;13225;47.804;12.116;2023-04-03T05:14:49;16.55;;;9.77;;
25279;SDS011;13225;47.804;12.116;2023-04-03T05:17:15;17.15;;;9.57;;
25279;SDS011;13225;47.804;12.116;2023-04-03T05:19:40;17.27;;;9.75;;
25279;SDS011;13225;47.804;12.116;2023-04-03T05:22:06;15.98;;;9.00;;
25279;SDS011;13225;47.804;12.116;2023-04-03T05:24:32;16.13;;;9.95;;
25279;SDS011;13225;47.804;12.116;2023-04-03T05:26:58;16.52;;;9.63;;
25279;SDS011;13225;47.804;12.116;2023-04-03T05:29:23;17.00;;;9.77;;
25279;SDS011;13225;47.804;12.116;2023-04-03T05:31:50;16.13;;;9.60;;
25279;SDS011;13225;47.804;12.116;2023-04-03T05:34:16;14.45;;;8.27;;
25279;SDS011;13225;47.804;12.116;2023-04-03T05:36:41;16.27;;;8.98;;
25279;SDS011;13225;47.804;12.116;2023-04-03T05:39:07;13.60;;;8.45;;
25279;SDS011;13225;47.804;12.116;2023-04-03T05:41:33;11.80;;;7.57;;
25279;SDS011;13225;47.804;12.116;2023-04-03T05:43:59;14.75;;;8.55;;
25279;SDS011;13225;47.804;12.116;2023-04-03T05:46:25;13.15;;;7.60;;
25279;SDS011;13225;47.804;12.116;2023-04-03T05:48:51;15.13;;;8.52;;
25279;SDS011;13225;47.804;12.116;2023-04-03T05:51:17;10.63;;;6.38;;
25279;SDS011;13225;47.804;12.116;2023-04-03T05:53:49;11.50;;;7.13;;
25279;SDS011;13225;47.804;12.116;2023-04-03T05:56:20;11.80;;;7.00;;
25279;SDS011;13225;47.804;12.116;2023-04-03T05:58:46;11.98;;;7.53;;
25279;SDS011;13225;47.804;12.116;2023-04-03T06:01:11;11.65;;;6.85;;
25279;SDS011;13225;47.804;12.116;2023-04-03T06:03:37;11.15;;;7.32;;
25279;SDS011;13225;47.804;12.116;2023-04-03T06:06:04;12.68;;;7.35;;
25279;SDS011;13225;47.804;12.116;2023-04-03T06:08:30;12.25;;;7.50;;
25279;SDS011;13225;47.804;12.116;2023-04-03T06:11:11;8.95;;;4.85;;
25279;SDS011;13225;47.804;12.116;2023-04-03T06:13:37;12.10;;;6.85;;
25279;SDS011;13225;47.804;12.116;2023-04-03T06:16:03;7.95;;;4.32;;
25279;SDS011;13225;47.804;12.116;2023-04-03T06:18:29;11.18;;;6.82;;
25279;SDS011;13225;47.804;12.116;2023-04-03T06:20:55;12.77;;;7.60;;
25279;SDS011;13225;47.804;12.116;2023-04-03T06:23:20;10.30;;;6.28;;
25279;SDS011;13225;47.804;12.116;2023-04-03T06:25:46;9.70;;;5.97;;
25279;SDS011;13225;47.804;12.116;2023-04-03T06:28:12;12.05;;;6.50;;
25279;SDS011;13225;47.804;12.116;2023-04-03T06:30:37;12.02;;;6.65;;
25279;SDS011;13225;47.804;12.116;2023-04-03T06:33:03;14.50;;;8.20;;
25279;SDS011;13225;47.804;12.116;2023-04-03T06:35:28;12.38;;;7.30;;
25279;SDS011;13225;47.804;12.116;2023-04-03T06:37:55;11.57;;;7.72;;
25279;SDS011;13225;47.804;12.116;2023-04-03T06:40:22;17.15;;;8.55;;
25279;SDS011;13225;47.804;12.116;2023-04-03T06:42:50;11.18;;;6.32;;
25279;SDS011;13225;47.804;12.116;2023-04-03T06:45:19;10.70;;;7.07;;
25279;SDS011;13225;47.804;12.116;2023-04-03T06:47:46;11.90;;;7.05;;
25279;SDS011;13225;47.804;12.116;2023-04-03T06:50:12;9.85;;;7.07;;
25279;SDS011;13225;47.804;12.116;2023-04-03T06:52:39;12.95;;;7.18;;
25279;SDS011;13225;47.804;12.116;2023-04-03T06:55:06;12.38;;;7.75;;
25279;SDS011;13225;47.804;12.116;2023-04-03T06:57:33;12.20;;;7.53;;
25279;SDS011;13225;47.804;12.116;2023-04-03T06:59:58;10.75;;;7.57;;
25279;SDS011;13225;47.804;12.116;2023-04-03T07:02:24;6.72;;;5.45;;
25279;SDS011;13225;47.804;12.116;2023-04-03T07:04:50;10.20;;;6.47;;
25279;SDS011;13225;47.804;12.116;2023-04-03T07:07:15;9.50;;;6.97;;
25279;SDS011;13225;47.804;12.116;2023-04-03T07:09:42;6.35;;;3.60;;
25279;SDS011;13225;47.804;12.116;2023-04-03T07:12:11;6.53;;;4.28;;
25279;SDS011;13225;47.804;12.116;2023-04-03T07:14:37;7.93;;;5.43;;
25279;SDS011;13225;47.804;12.116;2023-04-03T07:17:02;8.55;;;4.50;;
25279;SDS011;13225;47.804;12.116;2023-04-03T07:19:28;8.95;;;5.82;;
25279;SDS011;13225;47.804;12.116;2023-04-03T07:21:53;8.60;;;5.43;;
25279;SDS011;13225;47.804;12.116;2023-04-03T07:24:20;7.25;;;5.28;;
25279;SDS011;13225;47.804;12.116;2023-04-03T07:26:48;6.68;;;4.47;;
25279;SDS011;13225;47.804;12.116;2023-04-03T07:29:17;7.40;;;5.30;;
25279;SDS011;13225;47.804;12.116;2023-04-03T07:31:43;6.63;;;5.10;;
25279;SDS011;13225;47.804;12.116;2023-04-03T07:34:09;8.02;;;5.05;;
25279;SDS011;13225;47.804;12.116;2023-04-03T07:36:35;8.30;;;6.07;;
25279;SDS011;13225;47.804;12.116;2023-04-03T07:39:01;20.10;;;8.57;;
25279;SDS011;13225;47.804;12.116;2023-04-03T07:41:28;7.10;;;5.03;;
25279;SDS011;13225;47.804;12.116;2023-04-03T07:43:55;6.28;;;4.35;;
25279;SDS011;13225;47.804;12.116;2023-04-03T07:46:21;7.93;;;5.93;;
25279;SDS011;13225;47.804;12.116;2023-04-03T07:48:47;6.70;;;4.82;;
25279;SDS011;13225;47.804;12.116;2023-04-03T07:51:13;8.10;;;5.13;;
25279;SDS011;13225;47.804;12.116;2023-04-03T07:53:38;5.72;;;4.40;;
25279;SDS011;13225;47.804;12.116;2023-04-03T07:56:04;9.35;;;5.40;;
25279;SDS011;13225;47.804;12.116;2023-04-03T07:58:30;6.45;;;5.00;;
25279;SDS011;13225;47.804;12.116;2023-04-03T08:00:55;6.35;;;4.70;;
25279;SDS011;13225;47.804;12.116;2023-04-03T08:03:21;8.95;;;5.88;;
25279;SDS011;13225;47.804;12.116;2023-04-03T08:05:48;7.50;;;4.30;;
25279;SDS011;13225;47.804;12.116;2023-04-03T08:08:15;7.75;;;5.43;;
25279;SDS011;13225;47.804;12.116;2023-04-03T08:10:42;6.57;;;5.18;;
25279;SDS011;13225;47.804;12.116;2023-04-03T08:13:08;8.68;;;5.22;;
25279;SDS011;13225;47.804;12.116;2023-04-03T08:15:34;7.63;;;4.90;;
25279;SDS011;13225;47.804;12.116;2023-04-03T08:18:00;6.57;;;3.72;;
25279;SDS011;13225;47.804;12.116;2023-04-03T08:20:26;6.40;;;4.57;;
25279;SDS011;13225;47.804;12.116;2023-04-03T08:22:52;9.02;;;4.75;;
25279;SDS011;13225;47.804;12.116;2023-04-03T08:25:18;7.15;;;5.13;;
25279;SDS011;13225;47.804;12.116;2023-04-03T08:27:44;5.85;;;4.63;;
25279;SDS011;13225;47.804;12.116;2023-04-03T08:30:10;3.70;;;2.88;;
25279;SDS011;13225;47.804;12.116;2023-04-03T08:32:36;6.88;;;4.95;;
25279;SDS011;13225;47.804;12.116;2023-04-03T08:35:03;5.43;;;4.10;;
25279;SDS011;13225;47.804;12.116;2023-04-03T08:37:29;6.38;;;4.75;;
25279;SDS011;13225;47.804;12.116;2023-04-03T08:39:55;8.35;;;4.82;;
25279;SDS011;13225;47.804;12.116;2023-04-03T08:45:16;10.35;;;5.55;;
25279;SDS011;13225;47.804;12.116;2023-04-03T08:47:52;5.28;;;4.00;;
25279;SDS011;13225;47.804;12.116;2023-04-03T08:50:47;5.20;;;4.45;;
25279;SDS011;13225;47.804;12.116;2023-04-03T08:53:25;5.00;;;3.22;;
25279;SDS011;13225;47.804;12.116;2023-04-03T08:55:53;5.50;;;4.22;;
25279;SDS011;13225;47.804;12.116;2023-04-03T08:58:21;6.55;;;5.20;;
25279;SDS011;13225;47.804;12.116;2023-04-03T09:00:51;4.63;;;3.05;;
25279;SDS011;13225;47.804;12.116;2023-04-03T09:03:20;5.80;;;3.88;;
25279;SDS011;13225;47.804;12.116;2023-04-03T09:05:57;5.82;;;4.47;;
25279;SDS011;13225;47.804;12.116;2023-04-03T09:08:30;8.68;;;5.50;;
25279;SDS011;13225;47.804;12.116;2023-04-03T09:13:59;7.18;;;3.65;;
25279;SDS011;13225;47.804;12.116;2023-04-03T09:16:54;4.93;;;3.58;;
25279;SDS011;13225;47.804;12.116;2023-04-03T09:21:58;6.32;;;4.53;;
25279;SDS011;13225;47.804;12.116;2023-04-03T09:24:27;5.72;;;4.72;;
25279;SDS011;13225;47.804;12.116;2023-04-03T09:26:59;9.52;;;4.53;;
25279;SDS011;13225;47.804;12.116;2023-04-03T09:29:29;5.38;;;4.65;;
25279;SDS011;13225;47.804;12.116;2023-04-03T09:32:02;4.13;;;3.55;;
25279;SDS011;13225;47.804;12.116;2023-04-03T09:34:43;7.70;;;4.72;;
25279;SDS011;13225;47.804;12.116;2023-04-03T09:37:09;4.85;;;4.00;;
25279;SDS011;13225;47.804;12.116;2023-04-03T09:39:55;6.20;;;3.97;;
25279;SDS011;13225;47.804;12.116;2023-04-03T09:42:22;4.93;;;3.25;;
25279;SDS011;13225;47.804;12.116;2023-04-03T09:44:56;4.95;;;3.15;;
25279;SDS011;13225;47.804;12.116;2023-04-03T09:52:49;5.43;;;4.20;;
25279;SDS011;13225;47.804;12.116;2023-04-03T09:55:26;4.80;;;2.72;;
25279;SDS011;13225;47.804;12.116;2023-04-03T09:57:54;4.50;;;3.08;;
25279;SDS011;13225;47.804;12.116;2023-04-03T10:00:26;8.40;;;4.22;;
25279;SDS011;13225;47.804;12.116;2023-04-03T10:02:58;7.38;;;5.10;;
25279;SDS011;13225;47.804;12.116;2023-04-03T10:05:34;5.72;;;3.15;;
25279;SDS011;13225;47.804;12.116;2023-04-03T10:10:40;5.97;;;3.60;;
25279;SDS011;13225;47.804;12.116;2023-04-03T10:15:44;4.30;;;3.70;;
25279;SDS011;13225;47.804;12.116;2023-04-03T10:18:46;2.83;;;2.63;;
25279;SDS011;13225;47.804;12.116;2023-04-03T10:29:38;2.00;;;1.63;;
25279;SDS011;13225;47.804;12.116;2023-04-03T10:38:09;4.85;;;2.60;;
25279;SDS011;13225;47.804;12.116;2023-04-03T10:40:50;2.65;;;2.22;;
25279;SDS011;13225;47.804;12.116;2023-04-03T10:43:44;6.85;;;5.00;;
25279;SDS011;13225;47.804;12.116;2023-04-03T10:49:02;3.38;;;2.92;;
25279;SDS011;13225;47.804;12.116;2023-04-03T10:54:56;4.70;;;3.50;;
25279;SDS011;13225;47.804;12.116;2023-04-03T10:57:42;5.15;;;2.75;;
25279;SDS011;13225;47.804;12.116;2023-04-03T11:00:20;3.67;;;2.90;;
25279;SDS011;13225;47.804;12.116;2023-04-03T11:02:51;4.65;;;3.15;;
25279;SDS011;13225;47.804;12.116;2023-04-03T11:05:34;4.22;;;3.10;;
25279;SDS011;13225;47.804;12.116;2023-04-03T11:08:08;4.53;;;2.90;;
25279;SDS011;13225;47.804;12.116;2023-04-03T11:13:27;5.60;;;4.15;;
25279;SDS011;13225;47.804;12.116;2023-04-03T11:15:59;4.88;;;4.40;;
25279;SDS011;13225;47.804;12.116;2023-04-03T11:18:39;7.82;;;3.90;;
25279;SDS011;13225;47.804;12.116;2023-04-03T11:21:16;9.70;;;6.13;;
25279;SDS011;13225;47.804;12.116;2023-04-03T11:23:46;14.23;;;7.07;;
25279;SDS011;13225;47.804;12.116;2023-04-03T11:26:16;5.28;;;3.50;;
25279;SDS011;13225;47.804;12.116;2023-04-03T11:28:45;2.70;;;2.22;;
25279;SDS011;13225;47.804;12.116;2023-04-03T11:36:40;3.15;;;2.17;;
25279;SDS011;13225;47.804;12.116;2023-04-03T11:39:17;6.60;;;3.97;;
25279;SDS011;13225;47.804;12.116;2023-04-03T11:42:12;3.03;;;2.03;;
25279;SDS011;13225;47.804;12.116;2023-04-03T11:44:40;1.88;;;1.73;;
25279;SDS011;13225;47.804;12.116;2023-04-03T11:47:07;2.47;;;2.28;;
25279;SDS011;13225;47.804;12.116;2023-04-03T12:13:38;4.13;;;2.05;;
25279;SDS011;13225;47.804;12.116;2023-04-03T12:24:26;2.90;;;2.47;;
25279;SDS011;13225;47.804;12.116;2023-04-03T12:45:48;3.17;;;2.88;;
25279;SDS011;13225;47.804;12.116;2023-04-03T12:51:17;6.68;;;2.58;;
25279;SDS011;13225;47.804;12.116;2023-04-03T12:53:46;4.70;;;3.08;;
25279;SDS011;13225;47.804;12.116;2023-04-03T12:56:27;9.02;;;4.97;;
25279;SDS011;13225;47.804;12.116;2023-04-03T12:58:55;19.90;;;9.00;;
25279;SDS011;13225;47.804;12.116;2023-04-03T13:01:37;8.20;;;4.80;;
25279;SDS011;13225;47.804;12.116;2023-04-03T13:04:03;15.18;;;7.88;;
25279;SDS011;13225;47.804;12.116;2023-04-03T13:06:35;5.97;;;4.90;;
25279;SDS011;13225;47.804;12.116;2023-04-03T13:09:06;5.57;;;5.05;;
25279;SDS011;13225;47.804;12.116;2023-04-03T13:11:42;7.93;;;5.03;;
25279;SDS011;13225;47.804;12.116;2023-04-03T13:14:17;6.30;;;3.90;;
25279;SDS011;13225;47.804;12.116;2023-04-03T13:19:25;3.75;;;3.03;;
25279;SDS011;13225;47.804;12.116;2023-04-03T13:21:55;3.55;;;3.05;;
25279;SDS011;13225;47.804;12.116;2023-04-03T13:24:38;5.68;;;3.60;;
25279;SDS011;13225;47.804;12.116;2023-04-03T13:27:04;6.45;;;3.83;;
25279;SDS011;13225;47.804;12.116;2023-04-03T13:29:32;3.72;;;2.88;;
25279;SDS011;13225;47.804;12.116;2023-04-03T13:32:01;5.03;;;3.75;;
25279;SDS011;13225;47.804;12.116;2023-04-03T13:34:35;4.32;;;2.45;;
25279;SDS011;13225;47.804;12.116;2023-04-03T13:37:03;6.50;;;3.13;;
25279;SDS011;13225;47.804;12.116;2023-04-03T13:39:33;6.22;;;3.78;;
25279;SDS011;13225;47.804;12.116;2023-04-03T13:42:14;2.95;;;2.55;;
25279;SDS011;13225;47.804;12.116;2023-04-03T13:47:43;5.28;;;3.22;;
25279;SDS011;13225;47.804;12.116;2023-04-03T13:52:40;5.30;;;2.40;;
25279;SDS011;13225;47.804;12.116;2023-04-03T14:00:30;2.92;;;2.50;;
25279;SDS011;13225;47.804;12.116;2023-04-03T14:03:02;5.20;;;3.67;;
25279;SDS011;13225;47.804;12.116;2023-04-03T14:05:37;8.85;;;4.28;;
25279;SDS011;13225;47.804;12.116;2023-04-03T14:08:02;5.82;;;4.03;;
25279;SDS011;13225;47.804;12.116;2023-04-03T14:10:29;5.97;;;4.63;;
25279;SDS011;13225;47.804;12.116;2023-04-03T14:12:55;8.20;;;5.18;;
25279;SDS011;13225;47.804;12.116;2023-04-03T14:15:23;8.60;;;4.90;;
25279;SDS011;13225;47.804;12.116;2023-04-03T14:17:51;10.00;;;6.15;;
25279;SDS011;13225;47.804;12.116;2023-04-03T14:20:18;7.18;;;5.78;;
25279;SDS011;13225;47.804;12.116;2023-04-03T14:22:46;8.93;;;5.32;;
25279;SDS011;13225;47.804;12.116;2023-04-03T14:25:13;12.23;;;5.22;;
25279;SDS011;13225;47.804;12.116;2023-04-03T14:27:43;7.57;;;5.50;;
25279;SDS011;13225;47.804;12.116;2023-04-03T14:30:15;9.25;;;5.90;;
25279;SDS011;13225;47.804;12.116;2023-04-03T14:32:46;6.55;;;4.82;;
25279;SDS011;13225;47.804;12.116;2023-04-03T14:35:13;5.45;;;4.63;;
25279;SDS011;13225;47.804;12.116;2023-04-03T14:37:39;5.25;;;4.40;;
25279;SDS011;13225;47.804;12.116;2023-04-03T14:40:06;10.35;;;4.60;;
25279;SDS011;13225;47.804;12.116;2023-04-03T14:42:35;6.38;;;4.20;;
25279;SDS011;13225;47.804;12.116;2023-04-03T14:47:33;5.47;;;3.95;;
25279;SDS011;13225;47.804;12.116;2023-04-03T14:50:06;6.35;;;4.68;;
25279;SDS011;13225;47.804;12.116;2023-04-03T14:52:34;11.20;;;5.07;;
25279;SDS011;13225;47.804;12.116;2023-04-03T14:55:01;11.60;;;5.45;;
25279;SDS011;13225;47.804;12.116;2023-04-03T14:57:29;8.95;;;5.18;;
25279;SDS011;13225;47.804;12.116;2023-04-03T14:59:55;6.50;;;4.68;;
25279;SDS011;13225;47.804;12.116;2023-04-03T15:05:01;7.88;;;4.35;;
25279;SDS011;13225;47.804;12.116;2023-04-03T15:07:29;7.05;;;5.15;;
25279;SDS011;13225;47.804;12.116;2023-04-03T15:10:16;9.98;;;5.20;;
25279;SDS011;13225;47.804;12.116;2023-04-03T15:12:59;8.80;;;5.65;;
25279;SDS011;13225;47.804;12.116;2023-04-03T15:15:27;7.82;;;5.75;;
25279;SDS011;13225;47.804;12.116;2023-04-03T15:17:55;8.10;;;5.60;;
25279;SDS011;13225;47.804;12.116;2023-04-03T15:20:25;8.02;;;5.53;;
25279;SDS011;13225;47.804;12.116;2023-04-03T15:22:53;8.52;;;5.30;;
25279;SDS011;13225;47.804;12.116;2023-04-03T15:25:20;11.13;;;5.68;;
25279;SDS011;13225;47.804;12.116;2023-04-03T15:27:46;7.90;;;5.10;;
25279;SDS011;13225;47.804;12.116;2023-04-03T15:30:17;7.55;;;5.00;;
25279;SDS011;13225;47.804;12.116;2023-04-03T15:32:44;7.90;;;4.43;;
25279;SDS011;13225;47.804;12.116;2023-04-03T15:35:09;6.20;;;4.40;;
25279;SDS011;13225;47.804;12.116;2023-04-03T15:37:35;6.22;;;4.13;;
25279;SDS011;13225;47.804;12.116;2023-04-03T15:40:01;7.30;;;4.28;;
25279;SDS011;13225;47.804;12.116;2023-04-03T15:42:27;7.05;;;4.72;;
25279;SDS011;13225;47.804;12.116;2023-04-03T15:44:52;5.03;;;4.00;;
25279;SDS011;13225;47.804;12.116;2023-04-03T15:47:18;5.80;;;4.18;;
25279;SDS011;13225;47.804;12.116;2023-04-03T15:49:44;4.68;;;3.90;;
25279;SDS011;13225;47.804;12.116;2023-04-03T15:52:09;5.15;;;3.83;;
25279;SDS011;13225;47.804;12.116;2023-04-03T15:54:35;6.32;;;4.03;;
25279;SDS011;13225;47.804;12.116;2023-04-03T15:57:00;5.03;;;3.72;;
25279;SDS011;13225;47.804;12.116;2023-04-03T15:59:26;5.68;;;4.32;;
25279;SDS011;13225;47.804;12.116;2023-04-03T16:01:53;4.72;;;3.75;;
25279;SDS011;13225;47.804;12.116;2023-04-03T16:04:19;7.28;;;4.07;;
25279;SDS011;13225;47.804;12.116;2023-04-03T16:06:46;6.22;;;3.95;;
25279;SDS011;13225;47.804;12.116;2023-04-03T16:09:12;7.78;;;3.80;;
25279;SDS011;13225;47.804;12.116;2023-04-03T16:11:38;7.18;;;3.75;;
25279;SDS011;13225;47.804;12.116;2023-04-03T16:14:05;5.88;;;3.80;;
25279;SDS011;13225;47.804;12.116;2023-04-03T16:16:31;5.22;;;3.25;;
25279;SDS011;13225;47.804;12.116;2023-04-03T16:18:57;3.88;;;3.45;;
25279;SDS011;13225;47.804;12.116;2023-04-03T16:21:23;4.93;;;3.53;;
25279;SDS011;13225;47.804;12.116;2023-04-03T16:23:49;8.07;;;4.78;;
25279;SDS011;13225;47.804;12.116;2023-04-03T16:26:15;5.70;;;3.80;;
25279;SDS011;13225;47.804;12.116;2023-04-03T16:28:42;7.60;;;3.53;;
25279;SDS011;13225;47.804;12.116;2023-04-03T16:31:08;6.90;;;4.15;;
25279;SDS011;13225;47.804;12.116;2023-04-03T16:33:34;4.47;;;3.80;;
25279;SDS011;13225;47.804;12.116;2023-04-03T16:36:00;6.82;;;4.40;;
25279;SDS011;13225;47.804;12.116;2023-04-03T16:38:26;6.75;;;5.05;;
25279;SDS011;13225;47.804;12.116;2023-04-03T16:40:52;4.85;;;4.00;;
25279;SDS011;13225;47.804;12.116;2023-04-03T16:43:21;6.40;;;4.65;;